createdAt,value
2019-01-14T00:01:35.026Z,89.25
2019-01-14T00:04:03.813Z,89.38
2019-01-14T00:06:32.593Z,89.43
2019-01-14T00:09:01.387Z,89.17
2019-01-14T00:11:30.252Z,89.24
2019-01-14T00:13:59.051Z,89.33
2019-01-14T00:16:27.832Z,89.26
2019-01-14T00:18:56.624Z,89.30
2019-01-14T00:21:25.417Z,89.45
2019-01-14T00:23:54.261Z,88.47
2019-01-14T00:26:23.045Z,88.26
2019-01-14T00:28:51.820Z,88.75
2019-01-14T00:31:20.691Z,88.32
2019-01-14T00:33:49.519Z,88.35
2019-01-14T00:36:18.295Z,88.03
2019-01-14T00:38:47.206Z,88.20
2019-01-14T00:41:15.986Z,88.97
2019-01-14T00:43:44.855Z,88.51
2019-01-14T00:46:13.695Z,88.60
2019-01-14T00:48:42.565Z,89.05
2019-01-14T00:51:11.375Z,89.02
2019-01-14T00:53:40.177Z,88.84
2019-01-14T00:56:08.986Z,89.14
2019-01-14T00:58:37.788Z,89.41
2019-01-14T01:01:06.627Z,89.13
2019-01-14T01:03:35.475Z,89.05
2019-01-14T01:06:04.275Z,89.69
2019-01-14T01:08:33.097Z,88.99
2019-01-14T01:11:01.923Z,89.48
2019-01-14T01:13:30.777Z,89.43
2019-01-14T01:15:59.578Z,89.93
2019-01-14T01:18:28.375Z,89.16
2019-01-14T01:20:57.175Z,89.41
2019-01-14T01:23:25.989Z,89.25
2019-01-14T01:25:54.779Z,89.13
2019-01-14T01:28:23.639Z,88.82
2019-01-14T01:30:52.461Z,88.97
2019-01-14T01:33:21.259Z,88.88
2019-01-14T01:35:50.032Z,88.61
2019-01-14T01:38:18.818Z,88.80
2019-01-14T01:40:47.586Z,89.07
2019-01-14T01:43:16.477Z,88.66
2019-01-14T01:45:45.346Z,88.70
2019-01-14T01:48:14.260Z,89.08
2019-01-14T01:50:43.174Z,88.50
2019-01-14T01:53:11.964Z,88.57
2019-01-14T01:55:40.802Z,87.97
2019-01-14T01:58:09.623Z,88.30
2019-01-14T02:00:38.404Z,88.30
2019-01-14T02:03:07.186Z,88.09
2019-01-14T02:05:36.044Z,87.75
2019-01-14T02:08:04.935Z,88.26
2019-01-14T02:10:33.794Z,87.46
2019-01-14T02:13:02.680Z,88.13
2019-01-14T02:15:31.481Z,87.08
2019-01-14T02:18:00.323Z,87.61
2019-01-14T02:20:29.237Z,88.09
2019-01-14T02:22:58.019Z,88.37
2019-01-14T02:25:26.896Z,88.57
2019-01-14T02:27:55.675Z,88.10
2019-01-14T02:30:24.471Z,88.12
2019-01-14T02:32:53.256Z,87.83
2019-01-14T02:35:22.099Z,87.89
2019-01-14T02:37:50.933Z,88.42
2019-01-14T02:40:22.011Z,88.73
2019-01-14T02:42:50.791Z,88.22
2019-01-14T02:45:19.603Z,88.72
2019-01-14T02:47:48.455Z,88.32
2019-01-14T02:50:17.251Z,88.35
2019-01-14T02:52:46.071Z,88.25
2019-01-14T02:55:14.860Z,88.49
2019-01-14T02:57:43.634Z,88.27
2019-01-14T03:00:15.826Z,88.43
2019-01-14T03:02:44.619Z,88.75
2019-01-14T03:05:13.465Z,88.25
2019-01-14T03:07:42.255Z,88.41
2019-01-14T03:10:11.090Z,88.50
2019-01-14T03:12:39.941Z,88.08
2019-01-14T03:15:08.959Z,88.56
2019-01-14T03:17:37.731Z,88.29
2019-01-14T03:20:08.563Z,87.98
2019-01-14T03:22:37.338Z,88.48
2019-01-14T03:25:06.674Z,88.56
2019-01-14T03:27:35.572Z,88.29
2019-01-14T03:30:05.868Z,87.96
2019-01-14T03:32:34.663Z,88.41
2019-01-14T03:35:03.525Z,88.42
2019-01-14T03:37:32.503Z,88.09
2019-01-14T03:40:01.336Z,88.01
2019-01-14T03:42:30.731Z,88.28
2019-01-14T03:44:59.556Z,87.87
2019-01-14T03:47:28.369Z,88.03
2019-01-14T03:49:57.188Z,87.97
2019-01-14T03:52:25.985Z,87.89
2019-01-14T03:54:54.783Z,88.21
2019-01-14T03:57:23.572Z,88.13
2019-01-14T03:59:52.364Z,87.91
2019-01-14T04:02:21.201Z,88.27
2019-01-14T04:04:49.979Z,88.69
2019-01-14T04:07:18.805Z,88.51
2019-01-14T04:09:47.577Z,89.02
2019-01-14T04:12:16.463Z,89.23
2019-01-14T04:14:45.302Z,89.62
2019-01-14T04:17:14.083Z,89.07
2019-01-14T04:19:42.911Z,89.34
2019-01-14T04:22:11.715Z,89.33
2019-01-14T04:24:40.553Z,89.62
2019-01-14T04:27:09.383Z,89.29
2019-01-14T04:29:38.295Z,88.86
2019-01-14T04:32:07.103Z,88.69
2019-01-14T04:34:35.895Z,89.12
2019-01-14T04:37:04.747Z,88.71
2019-01-14T04:39:33.551Z,88.93
2019-01-14T04:42:02.322Z,88.82
2019-01-14T04:44:31.236Z,88.64
2019-01-14T04:47:00.047Z,88.33
2019-01-14T04:49:28.871Z,88.94
2019-01-14T04:51:57.740Z,88.93
2019-01-14T04:54:26.616Z,88.81
2019-01-14T04:56:55.533Z,88.87
2019-01-14T04:59:24.295Z,88.92
2019-01-14T05:01:53.206Z,89.18
2019-01-14T05:04:21.995Z,88.71
2019-01-14T05:06:50.829Z,88.90
2019-01-14T05:09:19.600Z,89.18
2019-01-14T05:11:48.387Z,88.97
2019-01-14T05:14:17.211Z,89.01
2019-01-14T05:16:46.004Z,89.25
2019-01-14T05:19:14.782Z,89.14
2019-01-14T05:21:43.682Z,89.43
2019-01-14T05:24:12.551Z,89.33
2019-01-14T05:26:41.378Z,89.46
2019-01-14T05:29:10.226Z,89.17
2019-01-14T05:31:39.010Z,89.12
2019-01-14T05:34:07.812Z,89.15
2019-01-14T05:36:36.582Z,89.39
2019-01-14T05:39:08.367Z,89.29
2019-01-14T05:41:37.330Z,89.74
2019-01-14T05:44:06.186Z,90.12
2019-01-14T05:46:34.978Z,90.43
2019-01-14T05:49:03.789Z,89.93
2019-01-14T05:51:32.763Z,90.15
2019-01-14T05:54:01.550Z,90.39
2019-01-14T05:56:30.421Z,90.95
2019-01-14T05:58:59.234Z,90.40
2019-01-14T06:01:28.042Z,90.51
2019-01-14T06:03:56.864Z,90.51
2019-01-14T06:06:25.659Z,90.56
2019-01-14T06:08:54.516Z,90.67
2019-01-14T06:11:24.828Z,90.77
2019-01-14T06:13:53.616Z,90.69
2019-01-14T06:16:22.415Z,90.92
2019-01-14T06:18:51.247Z,91.02
2019-01-14T06:21:21.282Z,91.73
2019-01-14T06:23:53.190Z,91.96
2019-01-14T06:26:22.059Z,91.89
2019-01-14T06:28:50.861Z,90.83
2019-01-14T06:31:19.639Z,91.88
2019-01-14T06:33:48.451Z,90.73
2019-01-14T06:36:17.268Z,91.00
2019-01-14T06:38:46.103Z,90.15
2019-01-14T06:41:14.891Z,90.46
2019-01-14T06:43:43.712Z,90.20
2019-01-14T06:46:12.495Z,90.39
2019-01-14T06:48:41.280Z,90.59
2019-01-14T06:51:10.058Z,90.62
2019-01-14T06:53:38.837Z,90.20
2019-01-14T06:56:07.661Z,90.94
2019-01-14T06:58:36.443Z,90.77
2019-01-14T07:01:05.221Z,90.93
2019-01-14T07:03:33.996Z,91.32
2019-01-14T07:06:02.796Z,91.37
2019-01-14T07:08:31.879Z,91.15
2019-01-14T07:11:00.660Z,90.49
2019-01-14T07:13:29.459Z,91.20
2019-01-14T07:15:58.327Z,90.80
2019-01-14T07:18:27.115Z,91.06
2019-01-14T07:20:55.996Z,90.61
2019-01-14T07:23:24.807Z,90.29
2019-01-14T07:25:53.698Z,90.51
2019-01-14T07:28:22.498Z,90.69
2019-01-14T07:30:51.320Z,89.84
2019-01-14T07:33:20.174Z,90.24
2019-01-14T07:35:49.008Z,90.23
2019-01-14T07:38:17.850Z,90.61
2019-01-14T07:40:46.675Z,90.51
2019-01-14T07:43:15.504Z,90.38
2019-01-14T07:45:44.308Z,90.73
2019-01-14T07:48:13.108Z,90.64
2019-01-14T07:50:41.925Z,90.53
2019-01-14T07:53:10.758Z,90.27
2019-01-14T07:55:39.565Z,88.96
2019-01-14T07:58:08.362Z,88.83
2019-01-14T08:00:37.169Z,87.88
2019-01-14T08:03:06.054Z,86.91
2019-01-14T08:05:34.823Z,87.01
2019-01-14T08:08:03.671Z,87.29
2019-01-14T08:10:33.055Z,86.85
2019-01-14T08:13:01.853Z,87.02
2019-01-14T08:15:30.679Z,87.87
2019-01-14T08:17:59.487Z,87.88
2019-01-14T08:20:28.277Z,87.95
2019-01-14T08:22:57.059Z,88.77
2019-01-14T08:25:25.858Z,88.27
2019-01-14T08:27:54.812Z,88.77
2019-01-14T08:30:23.640Z,88.90
2019-01-14T08:32:52.428Z,89.00
2019-01-14T08:35:21.237Z,89.26
2019-01-14T08:37:50.010Z,89.06
2019-01-14T08:40:18.972Z,89.61
2019-01-14T08:42:47.825Z,89.35
2019-01-14T08:45:16.742Z,88.74
2019-01-14T08:47:45.583Z,89.57
2019-01-14T08:50:16.568Z,89.05
2019-01-14T08:52:45.374Z,88.93
2019-01-14T08:55:14.182Z,89.10
2019-01-14T08:57:42.986Z,88.21
2019-01-14T09:00:14.329Z,88.08
2019-01-14T09:02:43.229Z,88.53
2019-01-14T09:05:12.029Z,88.59
2019-01-14T09:07:40.809Z,88.63
2019-01-14T09:10:12.396Z,88.61
2019-01-14T09:12:41.227Z,88.88
2019-01-14T09:15:11.494Z,88.73
2019-01-14T09:17:40.344Z,88.77
2019-01-14T09:20:12.423Z,88.66
2019-01-14T09:22:41.218Z,88.77
2019-01-14T09:25:10.016Z,88.16
2019-01-14T09:27:38.811Z,88.56
2019-01-14T09:30:12.490Z,88.76
2019-01-14T09:32:41.315Z,88.79
2019-01-14T09:35:10.159Z,88.01
2019-01-14T09:37:38.945Z,88.64
2019-01-14T09:40:09.562Z,88.85
2019-01-14T09:42:38.385Z,89.09
2019-01-14T09:45:07.282Z,88.54
2019-01-14T09:47:36.124Z,88.69
2019-01-14T09:50:05.972Z,88.53
2019-01-14T09:52:34.768Z,88.24
2019-01-14T09:55:05.724Z,88.35
2019-01-14T09:57:32.330Z,87.27
2019-01-14T10:00:01.132Z,86.91
2019-01-14T10:02:29.911Z,86.07
2019-01-14T10:04:58.748Z,85.41
2019-01-14T10:07:27.527Z,85.17
2019-01-14T10:09:56.437Z,82.87
2019-01-14T10:12:25.199Z,83.59
2019-01-14T10:14:53.991Z,83.31
2019-01-14T10:17:25.480Z,83.94
2019-01-14T10:19:54.282Z,83.38
2019-01-14T10:22:23.073Z,83.35
2019-01-14T10:24:51.986Z,83.02
2019-01-14T10:27:20.763Z,83.36
2019-01-14T10:29:49.555Z,82.10
2019-01-14T10:32:18.375Z,82.37
2019-01-14T10:34:47.213Z,82.18
2019-01-14T10:37:22.654Z,82.09
2019-01-14T10:39:44.961Z,82.28
2019-01-14T10:42:13.783Z,81.57
2019-01-14T10:44:42.627Z,80.86
2019-01-14T10:47:11.482Z,80.85
2019-01-14T10:49:40.360Z,80.89
2019-01-14T10:52:09.132Z,79.37
2019-01-14T10:54:37.972Z,79.27
2019-01-14T10:57:06.843Z,78.57
2019-01-14T10:59:35.755Z,78.52
2019-01-14T11:02:04.551Z,77.95
2019-01-14T11:04:33.405Z,76.03
2019-01-14T11:07:02.544Z,74.82
2019-01-14T11:09:31.324Z,74.29
2019-01-14T11:12:00.126Z,74.91
2019-01-14T11:14:28.908Z,74.12
2019-01-14T11:16:57.719Z,73.54
2019-01-14T11:19:26.537Z,73.61
2019-01-14T11:21:55.378Z,71.99
2019-01-14T11:24:24.148Z,73.00
2019-01-14T11:26:53.296Z,74.84
2019-01-14T11:29:22.150Z,75.35
2019-01-14T11:31:51.007Z,75.82
2019-01-14T11:34:19.915Z,76.24
2019-01-14T11:36:48.788Z,76.31
2019-01-14T11:39:20.348Z,76.96
2019-01-14T11:41:50.367Z,77.32
2019-01-14T11:44:19.148Z,78.27
2019-01-14T11:46:47.932Z,76.32
2019-01-14T11:49:16.723Z,77.18
2019-01-14T11:51:45.520Z,75.62
2019-01-14T11:54:14.319Z,76.68
2019-01-14T11:56:43.188Z,76.43
2019-01-14T11:59:11.984Z,76.78
2019-01-14T12:01:40.779Z,75.69
2019-01-14T12:04:09.612Z,76.68
2019-01-14T12:06:38.408Z,77.53
2019-01-14T12:09:12.291Z,78.53
2019-01-14T12:11:39.084Z,76.66
2019-01-14T12:14:07.936Z,76.40
2019-01-14T12:16:36.751Z,75.38
2019-01-14T12:19:05.550Z,76.31
2019-01-14T12:21:34.336Z,75.47
2019-01-14T12:24:03.226Z,73.97
2019-01-14T12:26:32.205Z,73.20
2019-01-14T12:29:00.982Z,73.67
2019-01-14T12:31:29.774Z,71.55
2019-01-14T12:33:58.611Z,71.41
2019-01-14T12:36:27.476Z,70.26
2019-01-14T12:38:56.274Z,68.20
2019-01-14T12:41:25.111Z,69.12
2019-01-14T12:43:53.900Z,69.55
2019-01-14T12:46:22.712Z,70.31
2019-01-14T12:48:51.548Z,71.00
2019-01-14T12:51:20.340Z,69.42
2019-01-14T12:53:49.232Z,68.61
2019-01-14T12:56:18.048Z,67.90
2019-01-14T12:58:47.016Z,70.23
2019-01-14T13:01:15.906Z,70.06
2019-01-14T13:03:44.729Z,70.60
2019-01-14T13:06:13.527Z,69.78
2019-01-14T13:08:42.400Z,69.91
2019-01-14T13:11:11.252Z,68.52
2019-01-14T13:13:40.112Z,69.71
2019-01-14T13:16:08.915Z,68.96
2019-01-14T13:18:37.870Z,68.26
2019-01-14T13:21:06.691Z,68.84
2019-01-14T13:23:35.540Z,69.70
2019-01-14T13:26:04.341Z,70.49
2019-01-14T13:28:33.127Z,70.24
2019-01-14T13:31:02.319Z,70.87
2019-01-14T13:33:31.151Z,70.22
2019-01-14T13:35:59.960Z,70.52
2019-01-14T13:38:28.775Z,70.37
2019-01-14T13:40:57.571Z,68.07
2019-01-14T13:43:26.427Z,68.26
2019-01-14T13:45:55.304Z,70.90
2019-01-14T13:48:24.118Z,72.18
2019-01-14T13:50:52.930Z,73.04
2019-01-14T13:53:21.782Z,73.90
2019-01-14T13:55:50.598Z,74.54
2019-01-14T13:58:19.367Z,75.88
2019-01-14T14:00:48.296Z,75.56
2019-01-14T14:03:17.075Z,76.45
2019-01-14T14:05:45.884Z,76.21
2019-01-14T14:08:14.707Z,76.45
2019-01-14T14:10:43.510Z,75.62
2019-01-14T14:13:12.312Z,76.74
2019-01-14T14:15:41.227Z,76.42
2019-01-14T14:18:09.998Z,76.32
2019-01-14T14:20:38.968Z,76.82
2019-01-14T14:23:07.803Z,77.21
2019-01-14T14:25:36.637Z,77.29
2019-01-14T14:28:05.447Z,77.99
2019-01-14T14:30:37.114Z,78.06
2019-01-14T14:33:05.970Z,77.81
2019-01-14T14:35:34.779Z,78.21
2019-01-14T14:38:03.726Z,77.89
2019-01-14T14:40:32.593Z,77.77
2019-01-14T14:43:01.478Z,77.66
2019-01-14T14:45:30.340Z,77.13
2019-01-14T14:47:59.210Z,77.36
2019-01-14T14:50:28.205Z,76.86
2019-01-14T14:52:57.093Z,77.31
2019-01-14T14:55:25.966Z,78.02
2019-01-14T14:57:54.769Z,77.17
2019-01-14T15:00:23.583Z,76.69
2019-01-14T15:02:52.368Z,77.74
2019-01-14T15:05:21.169Z,77.81
2019-01-14T15:07:49.960Z,77.82
2019-01-14T15:10:20.479Z,78.06
2019-01-14T15:12:49.300Z,78.20
2019-01-14T15:15:18.866Z,78.93
2019-01-14T15:17:48.723Z,79.20
2019-01-14T15:20:18.676Z,78.40
2019-01-14T15:22:47.551Z,79.11
2019-01-14T15:25:16.352Z,79.47
2019-01-14T15:27:45.152Z,78.88
2019-01-14T15:30:17.559Z,79.24
2019-01-14T15:32:46.533Z,79.45
2019-01-14T15:35:15.403Z,79.63
2019-01-14T15:37:44.439Z,79.87
2019-01-14T15:40:14.021Z,79.46
2019-01-14T15:42:42.842Z,79.37
2019-01-14T15:45:14.834Z,80.04
2019-01-14T15:47:43.616Z,79.90
2019-01-14T15:50:12.378Z,79.69
2019-01-14T15:52:41.228Z,79.96
2019-01-14T15:55:12.387Z,79.57
2019-01-14T15:57:41.323Z,79.88
2019-01-14T16:00:12.587Z,80.91
2019-01-14T16:02:41.488Z,80.54
2019-01-14T16:05:10.270Z,80.75
2019-01-14T16:07:39.065Z,80.50
2019-01-14T16:10:10.876Z,80.60
2019-01-14T16:12:39.291Z,81.21
2019-01-14T16:15:08.343Z,81.14
2019-01-14T16:17:37.159Z,80.59
2019-01-14T16:20:07.562Z,81.04
2019-01-14T16:22:36.411Z,80.56
2019-01-14T16:25:05.783Z,80.98
2019-01-14T16:27:34.666Z,80.33
2019-01-14T16:30:03.773Z,80.36
2019-01-14T16:32:32.634Z,80.83
2019-01-14T16:35:01.446Z,80.01
2019-01-14T16:37:30.925Z,80.20
2019-01-14T16:39:59.728Z,79.80
2019-01-14T16:42:28.539Z,79.65
2019-01-14T16:44:57.429Z,79.46
2019-01-14T16:47:26.306Z,80.05
2019-01-14T16:49:55.072Z,79.89
2019-01-14T16:52:23.923Z,80.38
2019-01-14T16:54:52.890Z,80.67
2019-01-14T16:57:21.661Z,80.55
2019-01-14T16:59:50.462Z,80.22
2019-01-14T17:02:19.346Z,80.32
2019-01-14T17:04:48.135Z,80.82
2019-01-14T17:07:16.926Z,80.26
2019-01-14T17:09:45.754Z,80.73
2019-01-14T17:12:14.556Z,80.48
2019-01-14T17:14:43.418Z,81.18
2019-01-14T17:17:12.207Z,81.15
2019-01-14T17:19:41.009Z,81.39
2019-01-14T17:22:09.898Z,81.03
2019-01-14T17:24:38.700Z,81.33
2019-01-14T17:27:07.563Z,80.88
2019-01-14T17:29:36.374Z,80.92
2019-01-14T17:32:05.207Z,81.22
2019-01-14T17:34:33.995Z,81.15
2019-01-14T17:37:02.871Z,81.32
2019-01-14T17:39:31.736Z,81.34
2019-01-14T17:42:00.603Z,81.39
2019-01-14T17:44:29.394Z,81.54
2019-01-14T17:46:58.295Z,81.87
2019-01-14T17:49:27.140Z,82.03
2019-01-14T17:51:55.964Z,82.32
2019-01-14T17:54:24.751Z,81.72
2019-01-14T17:56:54.291Z,81.98
2019-01-14T17:59:23.180Z,81.86
2019-01-14T18:01:52.007Z,82.00
2019-01-14T18:04:20.887Z,82.03
2019-01-14T18:06:49.714Z,82.62
2019-01-14T18:09:18.541Z,82.09
2019-01-14T18:11:47.910Z,82.54
2019-01-14T18:14:16.694Z,82.31
2019-01-14T18:16:45.514Z,81.91
2019-01-14T18:19:14.335Z,82.20
2019-01-14T18:21:43.250Z,82.56
2019-01-14T18:24:12.086Z,82.43
2019-01-14T18:26:40.887Z,82.34
2019-01-14T18:29:09.696Z,82.82
2019-01-14T18:31:38.467Z,82.11
2019-01-14T18:34:07.308Z,82.90
2019-01-14T18:36:36.134Z,82.65
2019-01-14T18:39:07.352Z,82.73
2019-01-14T18:41:36.260Z,82.12
2019-01-14T18:44:05.051Z,82.18
2019-01-14T18:46:33.952Z,82.34
2019-01-14T18:49:02.746Z,82.51
2019-01-14T18:51:32.299Z,82.58
2019-01-14T18:54:01.113Z,82.14
2019-01-14T18:56:30.002Z,82.26
2019-01-14T18:58:58.788Z,82.96
2019-01-14T19:01:27.600Z,82.79
2019-01-14T19:03:56.387Z,83.01
2019-01-14T19:06:25.224Z,83.57
2019-01-14T19:08:54.107Z,83.70
2019-01-14T19:11:22.902Z,84.12
2019-01-14T19:13:51.692Z,83.64
2019-01-14T19:16:20.495Z,83.86
2019-01-14T19:18:49.347Z,84.42
2019-01-14T19:21:18.116Z,84.49
2019-01-14T19:23:47.023Z,84.88
2019-01-14T19:26:15.863Z,84.42
2019-01-14T19:28:49.607Z,84.94
2019-01-14T19:31:20.148Z,85.15
2019-01-14T19:33:49.049Z,85.26
2019-01-14T19:36:17.915Z,85.51
2019-01-14T19:38:46.698Z,85.28
2019-01-14T19:41:15.515Z,85.77
2019-01-14T19:43:44.478Z,85.45
2019-01-14T19:46:13.313Z,85.66
2019-01-14T19:48:42.271Z,86.24
2019-01-14T19:51:11.064Z,85.81
2019-01-14T19:53:39.896Z,85.80
2019-01-14T19:56:08.656Z,86.09
2019-01-14T19:58:37.479Z,86.05
2019-01-14T20:01:06.310Z,85.71
2019-01-14T20:03:35.111Z,85.55
2019-01-14T20:06:03.968Z,85.77
2019-01-14T20:08:32.814Z,85.82
2019-01-14T20:11:08.899Z,85.50
2019-01-14T20:13:30.451Z,85.58
2019-01-14T20:15:59.255Z,85.72
2019-01-14T20:18:28.025Z,85.74
2019-01-14T20:20:56.842Z,85.73
2019-01-14T20:23:25.616Z,86.17
2019-01-14T20:25:54.403Z,85.32
2019-01-14T20:28:23.203Z,85.42
2019-01-14T20:30:52.139Z,85.84
2019-01-14T20:33:20.953Z,86.14
2019-01-14T20:35:49.760Z,86.01
2019-01-14T20:38:18.552Z,85.85
2019-01-14T20:40:47.443Z,85.75
2019-01-14T20:43:16.209Z,85.80
2019-01-14T20:45:45.005Z,86.30
2019-01-14T20:48:13.881Z,86.66
2019-01-14T20:50:42.852Z,86.38
2019-01-14T20:53:13.730Z,86.16
2019-01-14T20:55:40.464Z,85.90
2019-01-14T20:58:09.391Z,85.98
2019-01-14T21:00:38.707Z,86.00
2019-01-14T21:03:07.508Z,86.44
2019-01-14T21:05:36.319Z,86.62
2019-01-14T21:08:05.144Z,86.43
2019-01-14T21:10:33.978Z,86.78
2019-01-14T21:13:02.768Z,86.73
2019-01-14T21:15:31.607Z,87.16
2019-01-14T21:18:00.414Z,86.68
2019-01-14T21:20:29.218Z,87.27
2019-01-14T21:22:58.010Z,86.73
2019-01-14T21:25:26.832Z,86.58
2019-01-14T21:27:55.612Z,87.00
2019-01-14T21:30:26.273Z,87.08
2019-01-14T21:32:55.066Z,86.67
2019-01-14T21:35:23.848Z,87.48
2019-01-14T21:40:30.307Z,87.23
2019-01-14T21:42:59.123Z,87.32
2019-01-14T21:45:27.903Z,87.07
2019-01-14T21:47:56.702Z,87.26
2019-01-14T21:50:25.491Z,87.17
2019-01-14T21:52:54.300Z,87.55
2019-01-14T21:55:24.720Z,87.39
2019-01-14T21:57:53.499Z,87.67
2019-01-14T22:00:23.602Z,87.98
2019-01-14T22:02:52.376Z,87.79
2019-01-14T22:05:21.199Z,87.45
2019-01-14T22:07:49.991Z,87.71
2019-01-14T22:10:21.119Z,88.35
2019-01-14T22:12:49.927Z,88.45
2019-01-14T22:15:18.731Z,88.67
2019-01-14T22:17:47.502Z,88.25
2019-01-14T22:20:20.374Z,88.11
2019-01-14T22:22:49.287Z,87.84
2019-01-14T22:25:18.081Z,88.01
2019-01-14T22:27:46.879Z,87.86
2019-01-14T22:30:18.019Z,88.94
2019-01-14T22:32:46.813Z,88.66
2019-01-14T22:35:15.594Z,88.35
2019-01-14T22:37:44.383Z,88.36
2019-01-14T22:40:13.225Z,88.52
2019-01-14T22:42:42.039Z,88.47
2019-01-14T22:45:10.958Z,88.10
2019-01-14T22:47:39.756Z,88.42
2019-01-14T22:50:11.051Z,88.57
2019-01-14T22:52:39.937Z,88.21
2019-01-14T22:55:08.791Z,88.06
2019-01-14T22:57:37.591Z,88.55
2019-01-14T23:00:17.871Z,88.34
2019-01-14T23:02:46.771Z,89.03
2019-01-14T23:05:15.560Z,88.19
2019-01-14T23:07:44.345Z,88.15
2019-01-14T23:10:13.161Z,88.14
2019-01-14T23:12:41.955Z,88.71
2019-01-14T23:15:10.839Z,88.33
2019-01-14T23:17:39.674Z,88.38
2019-01-14T23:20:08.477Z,88.57
2019-01-14T23:22:37.458Z,88.85
2019-01-14T23:25:06.243Z,88.69
2019-01-14T23:27:35.051Z,87.99
2019-01-14T23:30:04.875Z,89.26
2019-01-14T23:32:33.656Z,88.40
2019-01-14T23:35:02.448Z,88.93
2019-01-14T23:37:31.255Z,89.10
2019-01-14T23:40:00.042Z,89.10
2019-01-14T23:42:28.967Z,88.60
2019-01-14T23:44:57.762Z,89.10
2019-01-14T23:47:26.623Z,88.64
2019-01-14T23:49:55.442Z,88.78
2019-01-14T23:52:24.240Z,89.30
2019-01-14T23:54:53.018Z,89.49
2019-01-14T23:57:21.801Z,89.05
2019-01-14T23:59:50.600Z,88.85
